sensor_id;sensor_type;location;lat;lon;timestamp;pressure;altitude;pressure_sealevel;temperature;humidity
11329;BME280;5719;42.714;23.732;2023-02-14T00:02:18;95795.75;;;-0.73;70.68
11329;BME280;5719;42.714;23.732;2023-02-14T00:04:45;95804.22;;;-0.74;71.12
11329;BME280;5719;42.714;23.732;2023-02-14T00:07:13;95801.69;;;-0.75;71.37
11329;BME280;5719;42.714;23.732;2023-02-14T00:09:40;95796.63;;;-0.78;70.94
11329;BME280;5719;42.714;23.732;2023-02-14T00:12:07;95807.66;;;-0.81;71.49
11329;BME280;5719;42.714;23.732;2023-02-14T00:14:34;95801.75;;;-0.81;72.11
11329;BME280;5719;42.714;23.732;2023-02-14T00:17:18;95799.22;;;-0.84;71.70
11329;BME280;5719;42.714;23.732;2023-02-14T00:19:45;95800.06;;;-0.87;71.23
11329;BME280;5719;42.714;23.732;2023-02-14T00:22:13;95803.47;;;-0.89;70.44
11329;BME280;5719;42.714;23.732;2023-02-14T00:24:40;95800.97;;;-0.92;71.30
11329;BME280;5719;42.714;23.732;2023-02-14T00:27:07;95797.59;;;-0.94;70.77
11329;BME280;5719;42.714;23.732;2023-02-14T00:29:34;95799.31;;;-1.00;71.20
11329;BME280;5719;42.714;23.732;2023-02-14T00:32:01;95791.78;;;-1.12;72.31
11329;BME280;5719;42.714;23.732;2023-02-14T00:34:28;95798.56;;;-1.11;71.66
11329;BME280;5719;42.714;23.732;2023-02-14T00:36:57;95763.97;;;-1.27;71.90
11329;BME280;5719;42.714;23.732;2023-02-14T00:39:26;95796.00;;;-1.12;72.10
11329;BME280;5719;42.714;23.732;2023-02-14T00:41:53;95726.06;;;-1.51;71.32
11329;BME280;5719;42.714;23.732;2023-02-14T00:44:20;95779.13;;;-1.16;71.90
11329;BME280;5719;42.714;23.732;2023-02-14T00:46:47;95780.84;;;-1.20;72.15
11329;BME280;5719;42.714;23.732;2023-02-14T00:49:14;95777.47;;;-1.20;71.58
11329;BME280;5719;42.714;23.732;2023-02-14T00:51:40;95771.56;;;-1.21;71.85
11329;BME280;5719;42.714;23.732;2023-02-14T00:54:07;95782.59;;;-1.28;72.27
11329;BME280;5719;42.714;23.732;2023-02-14T00:56:36;95775.03;;;-1.41;73.41
11329;BME280;5719;42.714;23.732;2023-02-14T00:59:02;95765.78;;;-1.49;72.47
11329;BME280;5719;42.714;23.732;2023-02-14T01:01:29;95762.56;;;-1.81;75.50
11329;BME280;5719;42.714;23.732;2023-02-14T01:03:56;95778.66;;;-1.94;76.65
11329;BME280;5719;42.714;23.732;2023-02-14T01:06:24;95782.03;;;-1.95;77.34
11329;BME280;5719;42.714;23.732;2023-02-14T01:08:51;95775.25;;;-1.91;78.32
11329;BME280;5719;42.714;23.732;2023-02-14T01:11:20;95765.94;;;-1.85;78.04
11329;BME280;5719;42.714;23.732;2023-02-14T01:13:50;95750.72;;;-1.85;78.08
11329;BME280;5719;42.714;23.732;2023-02-14T01:16:19;95764.19;;;-1.69;76.89
11329;BME280;5719;42.714;23.732;2023-02-14T01:18:47;95759.09;;;-1.66;76.34
11329;BME280;5719;42.714;23.732;2023-02-14T01:21:17;95765.84;;;-1.64;76.84
11329;BME280;5719;42.714;23.732;2023-02-14T01:23:45;95751.47;;;-1.59;76.52
11329;BME280;5719;42.714;23.732;2023-02-14T01:26:12;95750.63;;;-1.58;76.49
11329;BME280;5719;42.714;23.732;2023-02-14T01:28:39;95750.59;;;-1.52;76.30
11329;BME280;5719;42.714;23.732;2023-02-14T01:31:10;95745.50;;;-1.49;76.48
11329;BME280;5719;42.714;23.732;2023-02-14T01:33:38;95734.56;;;-1.54;75.53
11329;BME280;5719;42.714;23.732;2023-02-14T01:36:06;95726.94;;;-1.51;76.46
11329;BME280;5719;42.714;23.732;2023-02-14T01:38:33;95722.69;;;-1.47;76.22
11329;BME280;5719;42.714;23.732;2023-02-14T01:41:00;95729.44;;;-1.48;75.47
11329;BME280;5719;42.714;23.732;2023-02-14T01:43:27;95732.88;;;-1.58;75.84
11329;BME280;5719;42.714;23.732;2023-02-14T01:45:53;95730.31;;;-1.55;76.30
11329;BME280;5719;42.714;23.732;2023-02-14T01:48:22;95730.31;;;-1.52;76.83
11329;BME280;5719;42.714;23.732;2023-02-14T01:50:51;95726.91;;;-1.48;76.19
11329;BME280;5719;42.714;23.732;2023-02-14T01:53:24;95722.69;;;-1.47;76.09
11329;BME280;5719;42.714;23.732;2023-02-14T01:55:59;95732.81;;;-1.47;76.16
11329;BME280;5719;42.714;23.732;2023-02-14T01:58:30;95731.97;;;-1.48;75.67
11329;BME280;5719;42.714;23.732;2023-02-14T02:01:00;95729.44;;;-1.46;76.31
11329;BME280;5719;42.714;23.732;2023-02-14T02:03:31;95723.75;;;-1.92;78.31
11329;BME280;5719;42.714;23.732;2023-02-14T02:06:07;95711.06;;;-1.86;77.63
11329;BME280;5719;42.714;23.732;2023-02-14T02:08:40;95711.00;;;-1.77;77.96
11329;BME280;5719;42.714;23.732;2023-02-14T02:11:08;95694.13;;;-1.85;77.07
11329;BME280;5719;42.714;23.732;2023-02-14T02:13:35;95694.16;;;-1.84;77.16
11329;BME280;5719;42.714;23.732;2023-02-14T02:16:14;95705.91;;;-1.74;77.30
11329;BME280;5719;42.714;23.732;2023-02-14T02:18:55;95703.38;;;-1.72;77.82
11329;BME280;5719;42.714;23.732;2023-02-14T02:24:42;95688.16;;;-1.74;76.44
11329;BME280;5719;42.714;23.732;2023-02-14T02:34:15;95674.66;;;-1.73;78.02
11329;BME280;5719;42.714;23.732;2023-02-14T02:36:59;95687.38;;;-1.80;78.98
11329;BME280;5719;42.714;23.732;2023-02-14T02:39:43;95675.59;;;-1.86;78.51
11329;BME280;5719;42.714;23.732;2023-02-14T02:42:23;95646.91;;;-1.94;79.15
11329;BME280;5719;42.714;23.732;2023-02-14T02:45:00;95669.72;;;-1.94;79.55
11329;BME280;5719;42.714;23.732;2023-02-14T02:47:31;95667.13;;;-1.86;80.16
11329;BME280;5719;42.714;23.732;2023-02-14T02:50:04;95684.00;;;-1.79;79.78
11329;BME280;5719;42.714;23.732;2023-02-14T02:52:56;95675.50;;;-1.78;79.80
11329;BME280;5719;42.714;23.732;2023-02-14T02:55:40;95688.19;;;-1.78;78.79
11329;BME280;5719;42.714;23.732;2023-02-14T02:58:28;95695.88;;;-1.97;79.52
11329;BME280;5719;42.714;23.732;2023-02-14T03:00:57;95689.94;;;-1.86;78.10
11329;BME280;5719;42.714;23.732;2023-02-14T03:03:26;95669.66;;;-1.85;78.45
11329;BME280;5719;42.714;23.732;2023-02-14T03:06:10;95662.06;;;-1.86;78.61
11329;BME280;5719;42.714;23.732;2023-02-14T03:08:39;95676.41;;;-1.85;77.53
11329;BME280;5719;42.714;23.732;2023-02-14T03:11:06;95673.91;;;-1.90;78.92
11329;BME280;5719;42.714;23.732;2023-02-14T03:13:51;95668.00;;;-1.92;79.87
11329;BME280;5719;42.714;23.732;2023-02-14T03:16:24;95668.03;;;-1.93;79.13
11329;BME280;5719;42.714;23.732;2023-02-14T03:19:20;95648.63;;;-1.98;79.57
11329;BME280;5719;42.714;23.732;2023-02-14T03:22:12;95665.50;;;-2.00;79.74
11329;BME280;5719;42.714;23.732;2023-02-14T03:24:47;95669.75;;;-2.06;80.24
11329;BME280;5719;42.714;23.732;2023-02-14T03:27:21;95653.72;;;-2.07;80.88
11329;BME280;5719;42.714;23.732;2023-02-14T03:29:56;95660.47;;;-2.10;82.37
11329;BME280;5719;42.714;23.732;2023-02-14T03:32:33;95647.06;;;-2.32;83.02
11329;BME280;5719;42.714;23.732;2023-02-14T03:35:10;95651.34;;;-2.44;85.14
11329;BME280;5719;42.714;23.732;2023-02-14T03:37:41;95644.53;;;-2.36;85.39
11329;BME280;5719;42.714;23.732;2023-02-14T03:40:18;95632.72;;;-2.33;85.09
11329;BME280;5719;42.714;23.732;2023-02-14T03:42:49;95641.13;;;-2.20;83.57
11329;BME280;5719;42.714;23.732;2023-02-14T03:45:21;95614.97;;;-2.24;83.44
11329;BME280;5719;42.714;23.732;2023-02-14T03:47:50;95623.34;;;-2.11;82.71
11329;BME280;5719;42.714;23.732;2023-02-14T03:50:19;95624.22;;;-2.18;82.29
11329;BME280;5719;42.714;23.732;2023-02-14T03:52:48;95634.38;;;-2.20;82.75
11329;BME280;5719;42.714;23.732;2023-02-14T03:55:22;95632.75;;;-2.43;82.44
11329;BME280;5719;42.714;23.732;2023-02-14T03:57:56;95621.06;;;-2.84;84.47
11329;BME280;5719;42.714;23.732;2023-02-14T04:00:24;95632.03;;;-2.74;84.08
11329;BME280;5719;42.714;23.732;2023-02-14T04:02:56;95628.63;;;-2.67;84.32
11329;BME280;5719;42.714;23.732;2023-02-14T04:05:26;95626.09;;;-2.63;84.59
11329;BME280;5719;42.714;23.732;2023-02-14T04:07:55;95636.19;;;-2.55;84.43
11329;BME280;5719;42.714;23.732;2023-02-14T04:10:24;95623.63;;;-2.85;83.49
11329;BME280;5719;42.714;23.732;2023-02-14T04:12:51;95619.38;;;-2.71;83.28
11329;BME280;5719;42.714;23.732;2023-02-14T04:15:18;95619.31;;;-2.62;82.36
11329;BME280;5719;42.714;23.732;2023-02-14T04:17:46;95615.09;;;-2.62;82.22
11329;BME280;5719;42.714;23.732;2023-02-14T04:20:31;95621.00;;;-2.52;80.98
11329;BME280;5719;42.714;23.732;2023-02-14T04:22:58;95622.69;;;-2.53;80.51
11329;BME280;5719;42.714;23.732;2023-02-14T04:25:27;95615.09;;;-2.53;80.67
11329;BME280;5719;42.714;23.732;2023-02-14T04:27:53;95614.25;;;-2.58;81.18
11329;BME280;5719;42.714;23.732;2023-02-14T04:30:20;95615.97;;;-2.66;81.19
11329;BME280;5719;42.714;23.732;2023-02-14T04:32:47;95609.22;;;-2.61;80.81
11329;BME280;5719;42.714;23.732;2023-02-14T04:35:14;95617.63;;;-2.56;80.45
11329;BME280;5719;42.714;23.732;2023-02-14T04:37:41;95611.72;;;-2.53;79.45
11329;BME280;5719;42.714;23.732;2023-02-14T04:40:09;95599.91;;;-2.54;79.88
11329;BME280;5719;42.714;23.732;2023-02-14T04:42:37;95598.22;;;-2.52;80.90
11329;BME280;5719;42.714;23.732;2023-02-14T04:45:05;95591.47;;;-2.53;80.11
11329;BME280;5719;42.714;23.732;2023-02-14T04:47:32;95594.81;;;-2.51;80.29
11329;BME280;5719;42.714;23.732;2023-02-14T04:49:59;95587.22;;;-2.47;81.38
11329;BME280;5719;42.714;23.732;2023-02-14T04:52:26;95588.88;;;-2.42;80.64
11329;BME280;5719;42.714;23.732;2023-02-14T04:54:53;95598.19;;;-2.48;79.25
11329;BME280;5719;42.714;23.732;2023-02-14T04:57:21;95594.84;;;-2.54;79.56
11329;BME280;5719;42.714;23.732;2023-02-14T04:59:49;95608.38;;;-2.64;80.50
11329;BME280;5719;42.714;23.732;2023-02-14T05:02:16;95597.41;;;-2.65;80.07
11329;BME280;5719;42.714;23.732;2023-02-14T05:04:42;95582.28;;;-2.81;80.30
11329;BME280;5719;42.714;23.732;2023-02-14T05:07:09;95594.91;;;-2.72;80.08
11329;BME280;5719;42.714;23.732;2023-02-14T05:09:36;95591.53;;;-2.71;79.46
11329;BME280;5719;42.714;23.732;2023-02-14T05:12:03;95579.75;;;-2.78;78.19
11329;BME280;5719;42.714;23.732;2023-02-14T05:14:30;95588.19;;;-2.73;78.33
11329;BME280;5719;42.714;23.732;2023-02-14T05:16:58;95585.63;;;-2.76;77.77
11329;BME280;5719;42.714;23.732;2023-02-14T05:19:26;95585.66;;;-2.79;77.59
11329;BME280;5719;42.714;23.732;2023-02-14T05:21:53;95579.75;;;-2.78;78.10
11329;BME280;5719;42.714;23.732;2023-02-14T05:24:20;95587.34;;;-2.83;77.21
11329;BME280;5719;42.714;23.732;2023-02-14T05:26:47;95583.16;;;-2.85;76.78
11329;BME280;5719;42.714;23.732;2023-02-14T05:29:13;95584.84;;;-2.90;77.29
11329;BME280;5719;42.714;23.732;2023-02-14T05:31:40;95584.00;;;-2.92;77.74
11329;BME280;5719;42.714;23.732;2023-02-14T05:34:09;95579.81;;;-3.00;77.70
11329;BME280;5719;42.714;23.732;2023-02-14T05:36:35;95584.84;;;-2.93;78.19
11329;BME280;5719;42.714;23.732;2023-02-14T05:39:03;95584.00;;;-2.92;78.60
11329;BME280;5719;42.714;23.732;2023-02-14T05:41:30;95589.91;;;-2.90;78.16
11329;BME280;5719;42.714;23.732;2023-02-14T05:43:57;95588.22;;;-2.88;78.92
11329;BME280;5719;42.714;23.732;2023-02-14T05:46:24;95583.13;;;-2.84;78.17
11329;BME280;5719;42.714;23.732;2023-02-14T05:48:50;95589.88;;;-2.81;78.20
11329;BME280;5719;42.714;23.732;2023-02-14T05:51:19;95590.72;;;-2.84;78.18
11329;BME280;5719;42.714;23.732;2023-02-14T05:53:46;95583.97;;;-2.83;78.41
11329;BME280;5719;42.714;23.732;2023-02-14T05:56:12;95587.34;;;-2.81;79.00
11329;BME280;5719;42.714;23.732;2023-02-14T05:58:39;95579.84;;;-3.07;80.46
11329;BME280;5719;42.714;23.732;2023-02-14T06:01:06;95595.81;;;-2.88;80.60
11329;BME280;5719;42.714;23.732;2023-02-14T06:03:33;95579.78;;;-2.86;79.95
11329;BME280;5719;42.714;23.732;2023-02-14T06:06:00;95597.41;;;-2.68;80.29
11329;BME280;5719;42.714;23.732;2023-02-14T06:08:29;95587.28;;;-2.60;81.13
11329;BME280;5719;42.714;23.732;2023-02-14T06:10:55;95602.41;;;-2.40;80.33
11329;BME280;5719;42.714;23.732;2023-02-14T06:13:22;95591.34;;;-2.23;80.10
11329;BME280;5719;42.714;23.732;2023-02-14T06:15:49;95597.13;;;-2.01;80.63
11329;BME280;5719;42.714;23.732;2023-02-14T06:18:16;95588.56;;;-1.83;79.49
11329;BME280;5719;42.714;23.732;2023-02-14T06:20:43;95595.94;;;-1.50;79.35
11329;BME280;5719;42.714;23.732;2023-02-14T06:23:10;95585.53;;;-1.21;78.03
11329;BME280;5719;42.714;23.732;2023-02-14T06:25:38;95586.03;;;-0.87;77.55
11329;BME280;5719;42.714;23.732;2023-02-14T06:28:05;95584.00;;;-0.55;76.14
11329;BME280;5719;42.714;23.732;2023-02-14T06:30:32;95588.59;;;-0.17;74.89
11329;BME280;5719;42.714;23.732;2023-02-14T06:32:59;95593.31;;;0.10;74.11
11329;BME280;5719;42.714;23.732;2023-02-14T06:35:25;95592.91;;;0.39;73.90
11329;BME280;5719;42.714;23.732;2023-02-14T06:37:52;95594.63;;;0.37;73.09
11329;BME280;5719;42.714;23.732;2023-02-14T06:40:19;95589.06;;;0.66;73.57
11329;BME280;5719;42.714;23.732;2023-02-14T06:42:48;95566.91;;;0.22;76.63
11329;BME280;5719;42.714;23.732;2023-02-14T06:45:15;95576.03;;;0.87;77.12
11329;BME280;5719;42.714;23.732;2023-02-14T06:47:42;95557.34;;;1.34;75.75
11329;BME280;5719;42.714;23.732;2023-02-14T06:50:09;95569.66;;;1.96;74.15
11329;BME280;5719;42.714;23.732;2023-02-14T06:52:37;95576.53;;;2.30;72.08
11329;BME280;5719;42.714;23.732;2023-02-14T06:55:05;95573.00;;;2.72;70.60
11329;BME280;5719;42.714;23.732;2023-02-14T06:57:32;95565.31;;;3.08;69.56
11329;BME280;5719;42.714;23.732;2023-02-14T07:00:00;95560.44;;;3.31;69.90
11329;BME280;5719;42.714;23.732;2023-02-14T07:02:27;95526.31;;;3.63;70.79
11329;BME280;5719;42.714;23.732;2023-02-14T07:04:54;95531.09;;;4.04;70.34
11329;BME280;5719;42.714;23.732;2023-02-14T07:07:21;95539.69;;;4.56;67.69
11329;BME280;5719;42.714;23.732;2023-02-14T07:09:48;95544.03;;;5.06;66.05
11329;BME280;5719;42.714;23.732;2023-02-14T07:12:15;95547.72;;;5.47;64.46
11329;BME280;5719;42.714;23.732;2023-02-14T07:14:41;95523.66;;;5.74;63.25
11329;BME280;5719;42.714;23.732;2023-02-14T07:17:10;95546.88;;;5.95;63.24
11329;BME280;5719;42.714;23.732;2023-02-14T07:19:36;95549.94;;;5.81;63.77
11329;BME280;5719;42.714;23.732;2023-02-14T07:22:03;95538.00;;;6.48;62.78
11329;BME280;5719;42.714;23.732;2023-02-14T07:24:30;95544.72;;;7.14;60.30
11329;BME280;5719;42.714;23.732;2023-02-14T07:26:57;95538.06;;;7.69;57.91
11329;BME280;5719;42.714;23.732;2023-02-14T07:29:24;95530.03;;;8.14;56.57
11329;BME280;5719;42.714;23.732;2023-02-14T07:31:51;95528.28;;;8.52;55.03
11329;BME280;5719;42.714;23.732;2023-02-14T07:34:19;95540.22;;;8.72;54.87
11329;BME280;5719;42.714;23.732;2023-02-14T07:36:46;95532.75;;;7.72;56.70
11329;BME280;5719;42.714;23.732;2023-02-14T07:39:13;95536.03;;;7.37;58.86
11329;BME280;5719;42.714;23.732;2023-02-14T07:41:40;95528.47;;;7.34;59.32
11329;BME280;5719;42.714;23.732;2023-02-14T07:44:07;95527.28;;;7.61;58.39
11329;BME280;5719;42.714;23.732;2023-02-14T07:46:33;95528.19;;;7.60;58.68
11329;BME280;5719;42.714;23.732;2023-02-14T07:49:00;95536.81;;;7.19;58.10
11329;BME280;5719;42.714;23.732;2023-02-14T07:51:29;95539.41;;;6.77;60.17
11329;BME280;5719;42.714;23.732;2023-02-14T07:53:55;95545.06;;;6.85;59.75
11329;BME280;5719;42.714;23.732;2023-02-14T07:56:22;95542.41;;;6.66;60.18
11329;BME280;5719;42.714;23.732;2023-02-14T07:58:49;95542.53;;;7.05;59.94
11329;BME280;5719;42.714;23.732;2023-02-14T08:01:16;95536.38;;;6.67;61.10
11329;BME280;5719;42.714;23.732;2023-02-14T08:03:43;95535.47;;;6.68;61.11
11329;BME280;5719;42.714;23.732;2023-02-14T08:06:13;95534.81;;;6.63;60.05
11329;BME280;5719;42.714;23.732;2023-02-14T08:08:42;95538.22;;;6.20;62.26
11329;BME280;5719;42.714;23.732;2023-02-14T08:11:09;95539.94;;;6.20;63.58
11329;BME280;5719;42.714;23.732;2023-02-14T08:13:35;95531.53;;;6.60;60.87
11329;BME280;5719;42.714;23.732;2023-02-14T08:16:01;95533.63;;;6.28;61.39
11329;BME280;5719;42.714;23.732;2023-02-14T08:18:33;95540.00;;;6.83;61.32
11329;BME280;5719;42.714;23.732;2023-02-14T08:21:00;95541.69;;;7.45;57.76
11329;BME280;5719;42.714;23.732;2023-02-14T08:23:27;95543.66;;;7.79;55.49
11329;BME280;5719;42.714;23.732;2023-02-14T08:25:56;95528.69;;;8.06;54.94
11329;BME280;5719;42.714;23.732;2023-02-14T08:28:23;95526.56;;;8.34;56.23
11329;BME280;5719;42.714;23.732;2023-02-14T08:30:50;95524.47;;;9.12;53.23
11329;BME280;5719;42.714;23.732;2023-02-14T08:33:17;95521.06;;;9.12;51.02
11329;BME280;5719;42.714;23.732;2023-02-14T08:35:44;95512.19;;;9.34;50.47
11329;BME280;5719;42.714;23.732;2023-02-14T08:38:11;95523.16;;;9.55;51.12
11329;BME280;5719;42.714;23.732;2023-02-14T08:40:38;95523.63;;;9.29;51.27
11329;BME280;5719;42.714;23.732;2023-02-14T08:43:07;95531.56;;;9.59;51.42
11329;BME280;5719;42.714;23.732;2023-02-14T08:45:35;95527.66;;;9.00;51.72
11329;BME280;5719;42.714;23.732;2023-02-14T08:48:03;95537.44;;;8.76;52.12
11329;BME280;5719;42.714;23.732;2023-02-14T08:50:30;95531.69;;;9.06;50.89
11329;BME280;5719;42.714;23.732;2023-02-14T08:52:57;95527.31;;;7.99;54.62
11329;BME280;5719;42.714;23.732;2023-02-14T08:55:24;95530.19;;;7.72;56.28
11329;BME280;5719;42.714;23.732;2023-02-14T08:57:54;95526.38;;;7.81;56.09
11329;BME280;5719;42.714;23.732;2023-02-14T09:00:22;95517.41;;;8.46;53.42
11329;BME280;5719;42.714;23.732;2023-02-14T09:02:50;95530.16;;;8.84;52.34
11329;BME280;5719;42.714;23.732;2023-02-14T09:05:17;95526.41;;;8.56;52.99
11329;BME280;5719;42.714;23.732;2023-02-14T09:07:44;95525.16;;;8.46;53.49
11329;BME280;5719;42.714;23.732;2023-02-14T09:10:11;95508.22;;;9.77;50.13
11329;BME280;5719;42.714;23.732;2023-02-14T09:12:39;95500.38;;;10.27;49.89
11329;BME280;5719;42.714;23.732;2023-02-14T09:15:07;95513.75;;;10.51;49.53
11329;BME280;5719;42.714;23.732;2023-02-14T09:17:36;95506.97;;;10.17;49.20
11329;BME280;5719;42.714;23.732;2023-02-14T09:20:04;95508.22;;;10.57;48.10
11329;BME280;5719;42.714;23.732;2023-02-14T09:22:31;95513.06;;;10.63;47.49
11329;BME280;5719;42.714;23.732;2023-02-14T09:24:58;95503.16;;;9.92;48.64
11329;BME280;5719;42.714;23.732;2023-02-14T09:27:25;95515.22;;;10.71;48.21
11329;BME280;5719;42.714;23.732;2023-02-14T09:29:52;95511.22;;;11.69;45.49
11329;BME280;5719;42.714;23.732;2023-02-14T09:32:19;95512.84;;;10.82;46.85
11329;BME280;5719;42.714;23.732;2023-02-14T09:34:47;95491.28;;;10.05;49.22
11329;BME280;5719;42.714;23.732;2023-02-14T09:37:14;95513.19;;;10.92;48.69
11329;BME280;5719;42.714;23.732;2023-02-14T09:39:41;95497.50;;;10.79;47.64
11329;BME280;5719;42.714;23.732;2023-02-14T09:42:25;95496.22;;;9.44;49.87
11329;BME280;5719;42.714;23.732;2023-02-14T09:44:56;95507.53;;;9.41;50.94
11329;BME280;5719;42.714;23.732;2023-02-14T09:47:31;95503.16;;;9.76;50.89
11329;BME280;5719;42.714;23.732;2023-02-14T09:50:03;95496.19;;;8.94;54.56
11329;BME280;5719;42.714;23.732;2023-02-14T09:52:30;95498.41;;;8.48;57.29
11329;BME280;5719;42.714;23.732;2023-02-14T09:55:00;95482.50;;;9.43;54.01
11329;BME280;5719;42.714;23.732;2023-02-14T09:57:35;95497.50;;;10.79;50.95
11329;BME280;5719;42.714;23.732;2023-02-14T10:00:13;95498.38;;;10.94;49.65
11329;BME280;5719;42.714;23.732;2023-02-14T10:02:50;95496.59;;;10.64;51.69
11329;BME280;5719;42.714;23.732;2023-02-14T10:05:22;95489.84;;;12.22;46.30
11329;BME280;5719;42.714;23.732;2023-02-14T10:07:57;95471.53;;;12.11;45.21
11329;BME280;5719;42.714;23.732;2023-02-14T10:10:28;95480.81;;;11.87;46.04
11329;BME280;5719;42.714;23.732;2023-02-14T10:13:04;95478.06;;;10.88;47.90
11329;BME280;5719;42.714;23.732;2023-02-14T10:15:37;95475.38;;;10.44;49.08
11329;BME280;5719;42.714;23.732;2023-02-14T10:18:11;95458.47;;;10.38;49.92
11329;BME280;5719;42.714;23.732;2023-02-14T10:20:43;95454.50;;;10.62;48.92
11329;BME280;5719;42.714;23.732;2023-02-14T10:23:26;95476.09;;;11.79;47.75
11329;BME280;5719;42.714;23.732;2023-02-14T10:25:59;95483.16;;;12.32;46.27
11329;BME280;5719;42.714;23.732;2023-02-14T10:28:30;95482.66;;;11.85;47.55
11329;BME280;5719;42.714;23.732;2023-02-14T10:31:07;95463.50;;;10.71;49.41
11329;BME280;5719;42.714;23.732;2023-02-14T10:33:41;95476.78;;;10.95;48.65
11329;BME280;5719;42.714;23.732;2023-02-14T10:36:20;95470.59;;;11.41;47.92
11329;BME280;5719;42.714;23.732;2023-02-14T10:38:57;95467.56;;;11.77;47.11
11329;BME280;5719;42.714;23.732;2023-02-14T10:41:32;95463.50;;;11.15;48.73
11329;BME280;5719;42.714;23.732;2023-02-14T10:44:19;95465.72;;;10.16;50.17
11329;BME280;5719;42.714;23.732;2023-02-14T10:46:54;95464.88;;;10.31;50.61
11329;BME280;5719;42.714;23.732;2023-02-14T10:49:24;95471.78;;;9.51;52.33
11329;BME280;5719;42.714;23.732;2023-02-14T10:51:57;95480.88;;;8.91;52.36
11329;BME280;5719;42.714;23.732;2023-02-14T10:54:31;95467.47;;;9.67;52.04
11329;BME280;5719;42.714;23.732;2023-02-14T10:57:03;95465.72;;;9.34;53.02
11329;BME280;5719;42.714;23.732;2023-02-14T10:59:34;95468.19;;;8.52;54.87
11329;BME280;5719;42.714;23.732;2023-02-14T11:02:05;95470.88;;;7.75;58.77
11329;BME280;5719;42.714;23.732;2023-02-14T11:04:34;95473.69;;;7.32;60.65
11329;BME280;5719;42.714;23.732;2023-02-14T11:07:03;95469.44;;;7.31;61.19
11329;BME280;5719;42.714;23.732;2023-02-14T11:09:29;95473.22;;;7.43;60.91
11329;BME280;5719;42.714;23.732;2023-02-14T11:11:58;95470.97;;;7.35;61.65
11329;BME280;5719;42.714;23.732;2023-02-14T11:14:27;95472.25;;;7.45;61.68
11329;BME280;5719;42.714;23.732;2023-02-14T11:16:55;95454.84;;;7.31;60.16
11329;BME280;5719;42.714;23.732;2023-02-14T11:19:25;95456.34;;;7.17;60.42
11329;BME280;5719;42.714;23.732;2023-02-14T11:21:54;95467.41;;;6.99;61.75
11329;BME280;5719;42.714;23.732;2023-02-14T11:24:28;95455.81;;;6.88;63.24
11329;BME280;5719;42.714;23.732;2023-02-14T11:26:56;95470.72;;;7.01;62.33
11329;BME280;5719;42.714;23.732;2023-02-14T11:29:27;95449.78;;;6.89;62.23
11329;BME280;5719;42.714;23.732;2023-02-14T11:31:55;95451.94;;;7.19;61.18
11329;BME280;5719;42.714;23.732;2023-02-14T11:34:33;95448.94;;;7.09;61.71
11329;BME280;5719;42.714;23.732;2023-02-14T11:37:01;95435.50;;;7.23;60.96
11329;BME280;5719;42.714;23.732;2023-02-14T11:39:32;95458.25;;;7.32;62.19
11329;BME280;5719;42.714;23.732;2023-02-14T11:42:02;95458.53;;;6.65;64.03
11329;BME280;5719;42.714;23.732;2023-02-14T11:44:31;95451.69;;;6.64;65.34
11329;BME280;5719;42.714;23.732;2023-02-14T11:47:17;95442.78;;;6.31;66.14
11329;BME280;5719;42.714;23.732;2023-02-14T11:50:00;95452.59;;;6.00;68.50
11329;BME280;5719;42.714;23.732;2023-02-14T11:52:52;95449.31;;;5.73;69.27
11329;BME280;5719;42.714;23.732;2023-02-14T11:55:33;95450.22;;;5.95;68.41
11329;BME280;5719;42.714;23.732;2023-02-14T11:58:02;95416.88;;;5.72;68.27
11329;BME280;5719;42.714;23.732;2023-02-14T12:00:30;95437.28;;;5.75;69.79
11329;BME280;5719;42.714;23.732;2023-02-14T12:02:59;95432.44;;;5.67;69.48
11329;BME280;5719;42.714;23.732;2023-02-14T12:05:30;95439.78;;;5.07;73.02
11329;BME280;5719;42.714;23.732;2023-02-14T12:07:59;95433.50;;;5.15;72.75
11329;BME280;5719;42.714;23.732;2023-02-14T12:10:28;95430.09;;;5.61;70.40
11329;BME280;5719;42.714;23.732;2023-02-14T12:12:59;95431.63;;;5.20;71.28
11329;BME280;5719;42.714;23.732;2023-02-14T12:15:29;95413.28;;;5.08;72.46
11329;BME280;5719;42.714;23.732;2023-02-14T12:18:12;95423.47;;;5.32;71.43
11329;BME280;5719;42.714;23.732;2023-02-14T12:20:50;95417.06;;;4.98;72.77
11329;BME280;5719;42.714;23.732;2023-02-14T12:23:24;95428.22;;;5.20;71.70
11329;BME280;5719;42.714;23.732;2023-02-14T12:25:57;95427.06;;;5.04;72.81
11329;BME280;5719;42.714;23.732;2023-02-14T12:28:28;95431.91;;;4.63;73.87
11329;BME280;5719;42.714;23.732;2023-02-14T12:30:56;95413.78;;;4.69;73.89
11329;BME280;5719;42.714;23.732;2023-02-14T12:33:23;95408.38;;;5.02;72.07
11329;BME280;5719;42.714;23.732;2023-02-14T12:35:56;95414.09;;;4.34;74.32
11329;BME280;5719;42.714;23.732;2023-02-14T12:38:39;95439.72;;;4.34;76.17
11329;BME280;5719;42.714;23.732;2023-02-14T12:41:19;95426.97;;;4.59;75.03
11329;BME280;5719;42.714;23.732;2023-02-14T12:43:53;95430.19;;;4.64;73.91
11329;BME280;5719;42.714;23.732;2023-02-14T12:46:32;95433.97;;;4.52;75.65
11329;BME280;5719;42.714;23.732;2023-02-14T12:49:11;95426.63;;;4.92;73.54
11329;BME280;5719;42.714;23.732;2023-02-14T12:51:46;95421.44;;;4.94;72.76
11329;BME280;5719;42.714;23.732;2023-02-14T12:54:29;95424.13;;;4.66;73.88
11329;BME280;5719;42.714;23.732;2023-02-14T12:57:05;95417.75;;;4.53;74.46
11329;BME280;5719;42.714;23.732;2023-02-14T12:59:40;95413.34;;;4.57;74.28
11329;BME280;5719;42.714;23.732;2023-02-14T13:05:46;95403.94;;;4.57;73.88
11329;BME280;5719;42.714;23.732;2023-02-14T13:08:27;95413.28;;;5.08;71.99
11329;BME280;5719;42.714;23.732;2023-02-14T13:11:07;95409.91;;;4.82;72.57
11329;BME280;5719;42.714;23.732;2023-02-14T13:13:47;95413.63;;;4.99;71.97
11329;BME280;5719;42.714;23.732;2023-02-14T13:16:24;95412.44;;;5.07;71.79
11329;BME280;5719;42.714;23.732;2023-02-14T13:18:57;95416.66;;;5.08;71.29
11329;BME280;5719;42.714;23.732;2023-02-14T13:21:27;95397.78;;;5.11;70.85
11329;BME280;5719;42.714;23.732;2023-02-14T13:23:57;95400.53;;;5.06;71.03
11329;BME280;5719;42.714;23.732;2023-02-14T13:26:30;95409.94;;;5.06;71.25
11329;BME280;5719;42.714;23.732;2023-02-14T13:29:02;95392.63;;;5.12;70.45
11329;BME280;5719;42.714;23.732;2023-02-14T13:31:31;95415.34;;;4.98;71.24
11329;BME280;5719;42.714;23.732;2023-02-14T13:34:02;95411.22;;;4.94;72.25
11329;BME280;5719;42.714;23.732;2023-02-14T13:36:32;95419.53;;;5.24;70.17